sensor_id;sensor_type;location;lat;lon;timestamp;temperature;humidity
29281;DHT22;25048;49.590;11.026;2024-03-17T00:02:23;4.70;99.90
29281;DHT22;25048;49.590;11.026;2024-03-17T00:04:51;4.60;99.90
29281;DHT22;25048;49.590;11.026;2024-03-17T00:07:19;4.50;99.90
29281;DHT22;25048;49.590;11.026;2024-03-17T00:09:47;4.40;99.90
29281;DHT22;25048;49.590;11.026;2024-03-17T00:12:15;4.30;99.90
29281;DHT22;25048;49.590;11.026;2024-03-17T00:14:42;4.30;99.90
29281;DHT22;25048;49.590;11.026;2024-03-17T00:17:11;4.10;99.90
29281;DHT22;25048;49.590;11.026;2024-03-17T00:19:39;4.00;99.90
29281;DHT22;25048;49.590;11.026;2024-03-17T00:22:06;4.00;99.90
29281;DHT22;25048;49.590;11.026;2024-03-17T00:24:35;3.90;99.90
29281;DHT22;25048;49.590;11.026;2024-03-17T00:27:03;3.80;99.90
29281;DHT22;25048;49.590;11.026;2024-03-17T00:29:31;3.80;99.90
29281;DHT22;25048;49.590;11.026;2024-03-17T00:31:59;3.70;99.90
29281;DHT22;25048;49.590;11.026;2024-03-17T00:34:27;3.70;99.90
29281;DHT22;25048;49.590;11.026;2024-03-17T00:36:54;3.80;99.90
29281;DHT22;25048;49.590;11.026;2024-03-17T00:39:22;3.80;99.90
29281;DHT22;25048;49.590;11.026;2024-03-17T00:41:50;3.80;99.90
29281;DHT22;25048;49.590;11.026;2024-03-17T00:44:17;3.80;99.90
29281;DHT22;25048;49.590;11.026;2024-03-17T00:46:46;3.80;99.90
29281;DHT22;25048;49.590;11.026;2024-03-17T00:49:13;3.80;99.90
29281;DHT22;25048;49.590;11.026;2024-03-17T00:51:41;3.80;99.90
29281;DHT22;25048;49.590;11.026;2024-03-17T00:54:09;3.80;99.90
29281;DHT22;25048;49.590;11.026;2024-03-17T00:56:36;3.80;99.90
29281;DHT22;25048;49.590;11.026;2024-03-17T00:59:04;3.80;99.90
29281;DHT22;25048;49.590;11.026;2024-03-17T01:01:31;3.80;99.90
29281;DHT22;25048;49.590;11.026;2024-03-17T01:03:59;3.80;99.90
29281;DHT22;25048;49.590;11.026;2024-03-17T01:06:27;3.80;99.90
29281;DHT22;25048;49.590;11.026;2024-03-17T01:08:54;3.80;99.90
29281;DHT22;25048;49.590;11.026;2024-03-17T01:11:22;3.70;99.90
29281;DHT22;25048;49.590;11.026;2024-03-17T01:13:51;3.70;99.90
29281;DHT22;25048;49.590;11.026;2024-03-17T01:16:19;3.70;99.90
29281;DHT22;25048;49.590;11.026;2024-03-17T01:18:46;3.70;99.90
29281;DHT22;25048;49.590;11.026;2024-03-17T01:21:14;3.70;99.90
29281;DHT22;25048;49.590;11.026;2024-03-17T01:23:42;3.70;99.90
29281;DHT22;25048;49.590;11.026;2024-03-17T01:26:09;3.70;99.90
29281;DHT22;25048;49.590;11.026;2024-03-17T01:28:37;3.70;99.90
29281;DHT22;25048;49.590;11.026;2024-03-17T01:31:08;3.60;99.90
29281;DHT22;25048;49.590;11.026;2024-03-17T01:33:36;3.60;99.90
29281;DHT22;25048;49.590;11.026;2024-03-17T01:36:03;3.60;99.90
29281;DHT22;25048;49.590;11.026;2024-03-17T01:38:32;3.60;99.90
29281;DHT22;25048;49.590;11.026;2024-03-17T01:41:00;3.60;99.90
29281;DHT22;25048;49.590;11.026;2024-03-17T01:43:28;3.60;99.90
29281;DHT22;25048;49.590;11.026;2024-03-17T01:45:58;3.60;99.90
29281;DHT22;25048;49.590;11.026;2024-03-17T01:48:27;3.60;99.90
29281;DHT22;25048;49.590;11.026;2024-03-17T01:50:56;3.60;99.90
29281;DHT22;25048;49.590;11.026;2024-03-17T01:53:25;3.60;99.90
29281;DHT22;25048;49.590;11.026;2024-03-17T01:55:56;3.50;99.90
29281;DHT22;25048;49.590;11.026;2024-03-17T01:58:27;3.50;99.90
29281;DHT22;25048;49.590;11.026;2024-03-17T02:00:57;3.50;99.90
29281;DHT22;25048;49.590;11.026;2024-03-17T02:03:25;3.40;99.90
29281;DHT22;25048;49.590;11.026;2024-03-17T02:05:53;3.40;99.90
29281;DHT22;25048;49.590;11.026;2024-03-17T02:08:20;3.30;99.90
29281;DHT22;25048;49.590;11.026;2024-03-17T02:10:55;3.30;99.90
29281;DHT22;25048;49.590;11.026;2024-03-17T02:13:23;3.20;99.90
29281;DHT22;25048;49.590;11.026;2024-03-17T02:15:50;3.20;99.90
29281;DHT22;25048;49.590;11.026;2024-03-17T02:18:18;3.20;99.90
29281;DHT22;25048;49.590;11.026;2024-03-17T02:20:46;3.20;99.90
29281;DHT22;25048;49.590;11.026;2024-03-17T02:23:25;3.20;99.90
29281;DHT22;25048;49.590;11.026;2024-03-17T02:25:53;3.20;99.90
29281;DHT22;25048;49.590;11.026;2024-03-17T02:28:21;3.20;99.90
29281;DHT22;25048;49.590;11.026;2024-03-17T02:30:48;3.20;99.90
29281;DHT22;25048;49.590;11.026;2024-03-17T02:33:16;3.20;99.90
29281;DHT22;25048;49.590;11.026;2024-03-17T02:35:44;3.20;99.90
29281;DHT22;25048;49.590;11.026;2024-03-17T02:38:15;3.20;99.90
29281;DHT22;25048;49.590;11.026;2024-03-17T02:40:44;3.20;99.90
29281;DHT22;25048;49.590;11.026;2024-03-17T02:43:11;3.10;99.90
29281;DHT22;25048;49.590;11.026;2024-03-17T02:45:39;3.00;99.90
29281;DHT22;25048;49.590;11.026;2024-03-17T02:48:07;2.90;99.90
29281;DHT22;25048;49.590;11.026;2024-03-17T02:50:34;2.80;99.90
29281;DHT22;25048;49.590;11.026;2024-03-17T02:53:02;2.70;99.90
29281;DHT22;25048;49.590;11.026;2024-03-17T02:55:30;2.70;99.90
29281;DHT22;25048;49.590;11.026;2024-03-17T02:57:57;2.50;99.90
29281;DHT22;25048;49.590;11.026;2024-03-17T03:00:25;2.50;99.90
29281;DHT22;25048;49.590;11.026;2024-03-17T03:02:52;2.40;99.90
29281;DHT22;25048;49.590;11.026;2024-03-17T03:05:21;2.30;99.90
29281;DHT22;25048;49.590;11.026;2024-03-17T03:07:48;2.30;99.90
29281;DHT22;25048;49.590;11.026;2024-03-17T03:10:16;2.20;99.90
29281;DHT22;25048;49.590;11.026;2024-03-17T03:12:43;2.10;99.90
29281;DHT22;25048;49.590;11.026;2024-03-17T03:15:11;2.10;99.90
29281;DHT22;25048;49.590;11.026;2024-03-17T03:17:39;2.00;99.90
29281;DHT22;25048;49.590;11.026;2024-03-17T03:20:07;1.90;99.90
29281;DHT22;25048;49.590;11.026;2024-03-17T03:22:35;1.90;99.90
29281;DHT22;25048;49.590;11.026;2024-03-17T03:25:03;1.80;99.90
29281;DHT22;25048;49.590;11.026;2024-03-17T03:27:30;1.80;99.90
29281;DHT22;25048;49.590;11.026;2024-03-17T03:29:58;1.80;99.90
29281;DHT22;25048;49.590;11.026;2024-03-17T03:32:26;1.80;99.90
29281;DHT22;25048;49.590;11.026;2024-03-17T03:34:54;1.90;99.90
29281;DHT22;25048;49.590;11.026;2024-03-17T03:37:21;1.90;99.90
29281;DHT22;25048;49.590;11.026;2024-03-17T03:39:50;2.00;99.90
29281;DHT22;25048;49.590;11.026;2024-03-17T03:42:18;2.00;99.90
29281;DHT22;25048;49.590;11.026;2024-03-17T03:44:47;2.00;99.90
29281;DHT22;25048;49.590;11.026;2024-03-17T03:47:15;2.10;99.90
29281;DHT22;25048;49.590;11.026;2024-03-17T03:49:43;2.10;99.90
29281;DHT22;25048;49.590;11.026;2024-03-17T03:52:11;2.20;99.90
29281;DHT22;25048;49.590;11.026;2024-03-17T03:54:39;2.10;99.90
29281;DHT22;25048;49.590;11.026;2024-03-17T03:57:07;2.10;99.90
29281;DHT22;25048;49.590;11.026;2024-03-17T03:59:35;2.10;99.90
29281;DHT22;25048;49.590;11.026;2024-03-17T04:02:02;2.20;99.90
29281;DHT22;25048;49.590;11.026;2024-03-17T04:04:31;2.20;99.90
29281;DHT22;25048;49.590;11.026;2024-03-17T04:06:59;2.20;99.90
29281;DHT22;25048;49.590;11.026;2024-03-17T04:09:27;2.20;99.90
29281;DHT22;25048;49.590;11.026;2024-03-17T04:11:55;2.20;99.90
29281;DHT22;25048;49.590;11.026;2024-03-17T04:14:23;2.30;99.90
29281;DHT22;25048;49.590;11.026;2024-03-17T04:16:51;2.30;99.90
29281;DHT22;25048;49.590;11.026;2024-03-17T04:19:18;2.40;99.90
29281;DHT22;25048;49.590;11.026;2024-03-17T04:21:46;2.50;99.90
29281;DHT22;25048;49.590;11.026;2024-03-17T04:24:14;2.50;99.90
29281;DHT22;25048;49.590;11.026;2024-03-17T04:26:41;2.60;99.90
29281;DHT22;25048;49.590;11.026;2024-03-17T04:29:10;2.60;99.90
29281;DHT22;25048;49.590;11.026;2024-03-17T04:31:38;2.70;99.90
29281;DHT22;25048;49.590;11.026;2024-03-17T04:34:06;2.70;99.90
29281;DHT22;25048;49.590;11.026;2024-03-17T04:36:34;2.80;99.90
29281;DHT22;25048;49.590;11.026;2024-03-17T04:39:01;2.90;99.90
29281;DHT22;25048;49.590;11.026;2024-03-17T04:41:30;2.90;99.90
29281;DHT22;25048;49.590;11.026;2024-03-17T04:43:57;3.00;99.90
29281;DHT22;25048;49.590;11.026;2024-03-17T04:46:25;3.00;99.90
29281;DHT22;25048;49.590;11.026;2024-03-17T04:48:53;3.00;99.90
29281;DHT22;25048;49.590;11.026;2024-03-17T04:51:20;3.10;99.90
29281;DHT22;25048;49.590;11.026;2024-03-17T04:53:48;3.10;99.90
29281;DHT22;25048;49.590;11.026;2024-03-17T04:56:16;3.10;99.90
29281;DHT22;25048;49.590;11.026;2024-03-17T04:58:43;3.10;99.90
29281;DHT22;25048;49.590;11.026;2024-03-17T05:01:11;3.20;99.90
29281;DHT22;25048;49.590;11.026;2024-03-17T05:03:39;3.20;99.90
29281;DHT22;25048;49.590;11.026;2024-03-17T05:06:07;3.20;99.90
29281;DHT22;25048;49.590;11.026;2024-03-17T05:08:35;3.30;99.90
29281;DHT22;25048;49.590;11.026;2024-03-17T05:11:04;3.30;99.90
29281;DHT22;25048;49.590;11.026;2024-03-17T05:13:35;3.30;99.90
29281;DHT22;25048;49.590;11.026;2024-03-17T05:16:02;3.40;99.90
29281;DHT22;25048;49.590;11.026;2024-03-17T05:18:33;3.40;99.90
29281;DHT22;25048;49.590;11.026;2024-03-17T05:21:04;3.40;99.90
29281;DHT22;25048;49.590;11.026;2024-03-17T05:23:33;3.40;99.90
29281;DHT22;25048;49.590;11.026;2024-03-17T05:26:02;3.50;99.90
29281;DHT22;25048;49.590;11.026;2024-03-17T05:28:31;3.50;99.90
29281;DHT22;25048;49.590;11.026;2024-03-17T05:30:59;3.50;99.90
29281;DHT22;25048;49.590;11.026;2024-03-17T05:33:27;3.50;99.90
29281;DHT22;25048;49.590;11.026;2024-03-17T05:35:58;3.40;99.90
29281;DHT22;25048;49.590;11.026;2024-03-17T05:38:27;3.40;99.90
29281;DHT22;25048;49.590;11.026;2024-03-17T05:40:57;3.40;99.90
29281;DHT22;25048;49.590;11.026;2024-03-17T05:43:27;3.40;99.90
29281;DHT22;25048;49.590;11.026;2024-03-17T05:45:57;3.40;99.90
29281;DHT22;25048;49.590;11.026;2024-03-17T05:48:25;3.50;99.90
29281;DHT22;25048;49.590;11.026;2024-03-17T05:50:52;3.50;99.90
29281;DHT22;25048;49.590;11.026;2024-03-17T05:53:21;3.60;99.90
29281;DHT22;25048;49.590;11.026;2024-03-17T05:55:51;3.60;99.90
29281;DHT22;25048;49.590;11.026;2024-03-17T05:58:18;3.70;99.90
29281;DHT22;25048;49.590;11.026;2024-03-17T06:00:46;3.70;99.90
29281;DHT22;25048;49.590;11.026;2024-03-17T06:03:13;3.80;99.90
29281;DHT22;25048;49.590;11.026;2024-03-17T06:05:41;3.80;99.90
29281;DHT22;25048;49.590;11.026;2024-03-17T06:08:09;3.90;99.90
29281;DHT22;25048;49.590;11.026;2024-03-17T06:10:43;3.90;99.90
29281;DHT22;25048;49.590;11.026;2024-03-17T06:13:09;4.00;99.90
29281;DHT22;25048;49.590;11.026;2024-03-17T06:15:40;4.10;99.90
29281;DHT22;25048;49.590;11.026;2024-03-17T06:18:09;4.10;99.90
29281;DHT22;25048;49.590;11.026;2024-03-17T06:20:43;4.20;99.90
29281;DHT22;25048;49.590;11.026;2024-03-17T06:23:11;4.30;99.90
29281;DHT22;25048;49.590;11.026;2024-03-17T06:25:43;4.40;99.90
29281;DHT22;25048;49.590;11.026;2024-03-17T06:28:13;4.50;99.90
29281;DHT22;25048;49.590;11.026;2024-03-17T06:30:44;4.60;99.90
29281;DHT22;25048;49.590;11.026;2024-03-17T06:33:16;4.60;99.90
29281;DHT22;25048;49.590;11.026;2024-03-17T06:35:47;4.70;99.90
29281;DHT22;25048;49.590;11.026;2024-03-17T06:38:15;4.80;99.90
29281;DHT22;25048;49.590;11.026;2024-03-17T06:40:48;4.80;99.90
29281;DHT22;25048;49.590;11.026;2024-03-17T06:43:16;4.90;99.90
29281;DHT22;25048;49.590;11.026;2024-03-17T06:45:44;4.90;99.90
29281;DHT22;25048;49.590;11.026;2024-03-17T06:48:13;5.00;99.90
29281;DHT22;25048;49.590;11.026;2024-03-17T06:50:41;5.20;99.90
29281;DHT22;25048;49.590;11.026;2024-03-17T06:53:10;5.30;99.90
29281;DHT22;25048;49.590;11.026;2024-03-17T06:55:37;5.40;99.90
29281;DHT22;25048;49.590;11.026;2024-03-17T06:58:05;5.50;99.90
29281;DHT22;25048;49.590;11.026;2024-03-17T07:00:33;5.60;99.90
29281;DHT22;25048;49.590;11.026;2024-03-17T07:03:00;5.70;99.90
29281;DHT22;25048;49.590;11.026;2024-03-17T07:05:28;5.70;99.90
29281;DHT22;25048;49.590;11.026;2024-03-17T07:07:58;5.90;99.90
29281;DHT22;25048;49.590;11.026;2024-03-17T07:10:25;6.00;99.90
29281;DHT22;25048;49.590;11.026;2024-03-17T07:12:53;6.10;99.90
29281;DHT22;25048;49.590;11.026;2024-03-17T07:15:20;6.30;99.90
29281;DHT22;25048;49.590;11.026;2024-03-17T07:17:50;6.40;99.90
29281;DHT22;25048;49.590;11.026;2024-03-17T07:20:17;6.60;99.90
29281;DHT22;25048;49.590;11.026;2024-03-17T07:22:45;6.80;99.90
29281;DHT22;25048;49.590;11.026;2024-03-17T07:25:13;6.90;99.90
29281;DHT22;25048;49.590;11.026;2024-03-17T07:27:40;7.10;99.90
29281;DHT22;25048;49.590;11.026;2024-03-17T07:30:08;7.20;99.90
29281;DHT22;25048;49.590;11.026;2024-03-17T07:32:37;7.40;99.90
29281;DHT22;25048;49.590;11.026;2024-03-17T07:35:04;7.50;99.90
29281;DHT22;25048;49.590;11.026;2024-03-17T07:37:32;7.70;99.90
29281;DHT22;25048;49.590;11.026;2024-03-17T07:40:02;7.70;99.90
29281;DHT22;25048;49.590;11.026;2024-03-17T07:42:31;7.90;99.90
29281;DHT22;25048;49.590;11.026;2024-03-17T07:44:59;7.90;99.90
29281;DHT22;25048;49.590;11.026;2024-03-17T07:47:26;8.10;99.90
29281;DHT22;25048;49.590;11.026;2024-03-17T07:49:56;8.30;99.90
29281;DHT22;25048;49.590;11.026;2024-03-17T07:52:25;8.40;99.90
29281;DHT22;25048;49.590;11.026;2024-03-17T07:54:52;8.50;99.90
29281;DHT22;25048;49.590;11.026;2024-03-17T07:57:20;8.50;99.90
29281;DHT22;25048;49.590;11.026;2024-03-17T07:59:49;8.50;99.90
29281;DHT22;25048;49.590;11.026;2024-03-17T08:02:19;8.60;99.90
29281;DHT22;25048;49.590;11.026;2024-03-17T08:04:46;8.70;99.90
29281;DHT22;25048;49.590;11.026;2024-03-17T08:07:14;8.90;99.90
29281;DHT22;25048;49.590;11.026;2024-03-17T08:09:42;8.90;99.90
29281;DHT22;25048;49.590;11.026;2024-03-17T08:12:09;8.90;99.90
29281;DHT22;25048;49.590;11.026;2024-03-17T08:14:37;8.90;99.90
29281;DHT22;25048;49.590;11.026;2024-03-17T08:17:04;8.90;99.90
29281;DHT22;25048;49.590;11.026;2024-03-17T08:19:33;9.00;99.90
29281;DHT22;25048;49.590;11.026;2024-03-17T08:22:01;9.10;99.90
29281;DHT22;25048;49.590;11.026;2024-03-17T08:24:29;9.20;99.90
29281;DHT22;25048;49.590;11.026;2024-03-17T08:26:56;9.20;99.90
29281;DHT22;25048;49.590;11.026;2024-03-17T08:29:24;9.20;99.90
29281;DHT22;25048;49.590;11.026;2024-03-17T08:31:51;9.20;99.90
29281;DHT22;25048;49.590;11.026;2024-03-17T08:34:19;9.20;99.90
29281;DHT22;25048;49.590;11.026;2024-03-17T08:36:47;9.40;99.90
29281;DHT22;25048;49.590;11.026;2024-03-17T08:39:15;9.50;99.90
29281;DHT22;25048;49.590;11.026;2024-03-17T08:41:42;9.60;99.90
29281;DHT22;25048;49.590;11.026;2024-03-17T08:44:10;9.80;99.90
29281;DHT22;25048;49.590;11.026;2024-03-17T08:46:39;10.00;99.90
29281;DHT22;25048;49.590;11.026;2024-03-17T08:49:06;10.20;99.90
29281;DHT22;25048;49.590;11.026;2024-03-17T08:51:34;10.20;99.90
29281;DHT22;25048;49.590;11.026;2024-03-17T08:54:02;10.20;99.90
29281;DHT22;25048;49.590;11.026;2024-03-17T08:56:29;10.30;99.90
29281;DHT22;25048;49.590;11.026;2024-03-17T08:58:57;10.30;99.90
29281;DHT22;25048;49.590;11.026;2024-03-17T09:01:24;10.40;99.90
29281;DHT22;25048;49.590;11.026;2024-03-17T09:03:53;10.50;99.90
29281;DHT22;25048;49.590;11.026;2024-03-17T09:06:23;10.60;99.90
29281;DHT22;25048;49.590;11.026;2024-03-17T09:08:52;10.60;99.90
29281;DHT22;25048;49.590;11.026;2024-03-17T09:11:19;10.60;99.90
29281;DHT22;25048;49.590;11.026;2024-03-17T09:13:49;10.80;99.90
29281;DHT22;25048;49.590;11.026;2024-03-17T09:16:16;11.00;99.90
29281;DHT22;25048;49.590;11.026;2024-03-17T09:18:45;11.30;99.90
29281;DHT22;25048;49.590;11.026;2024-03-17T09:21:12;11.50;99.90
29281;DHT22;25048;49.590;11.026;2024-03-17T09:23:42;11.50;99.90
29281;DHT22;25048;49.590;11.026;2024-03-17T09:26:11;11.60;99.90
29281;DHT22;25048;49.590;11.026;2024-03-17T09:28:40;11.70;99.90
29281;DHT22;25048;49.590;11.026;2024-03-17T09:31:08;11.80;99.90
29281;DHT22;25048;49.590;11.026;2024-03-17T09:33:38;11.90;99.90
29281;DHT22;25048;49.590;11.026;2024-03-17T09:36:07;12.10;99.90
29281;DHT22;25048;49.590;11.026;2024-03-17T09:38:36;12.10;99.90
29281;DHT22;25048;49.590;11.026;2024-03-17T09:41:06;12.20;99.90
29281;DHT22;25048;49.590;11.026;2024-03-17T09:43:35;12.30;99.90
29281;DHT22;25048;49.590;11.026;2024-03-17T09:46:04;12.50;99.90
29281;DHT22;25048;49.590;11.026;2024-03-17T09:48:32;12.60;99.90
29281;DHT22;25048;49.590;11.026;2024-03-17T09:51:01;12.60;99.90
29281;DHT22;25048;49.590;11.026;2024-03-17T09:53:33;12.60;99.90
29281;DHT22;25048;49.590;11.026;2024-03-17T09:56:08;12.60;99.90
29281;DHT22;25048;49.590;11.026;2024-03-17T09:58:35;12.90;99.90
29281;DHT22;25048;49.590;11.026;2024-03-17T10:01:03;13.20;99.90
29281;DHT22;25048;49.590;11.026;2024-03-17T10:03:46;13.50;99.90
29281;DHT22;25048;49.590;11.026;2024-03-17T10:06:25;13.60;99.90
29281;DHT22;25048;49.590;11.026;2024-03-17T10:08:56;13.80;99.90
29281;DHT22;25048;49.590;11.026;2024-03-17T10:11:34;13.80;99.90
29281;DHT22;25048;49.590;11.026;2024-03-17T10:14:05;13.70;99.90
29281;DHT22;25048;49.590;11.026;2024-03-17T10:16:35;14.00;99.90
29281;DHT22;25048;49.590;11.026;2024-03-17T10:19:15;14.30;99.90
29281;DHT22;25048;49.590;11.026;2024-03-17T10:21:45;14.40;99.90
29281;DHT22;25048;49.590;11.026;2024-03-17T10:24:24;14.70;99.90
29281;DHT22;25048;49.590;11.026;2024-03-17T10:26:54;15.00;99.90
29281;DHT22;25048;49.590;11.026;2024-03-17T10:32:01;15.00;99.90
29281;DHT22;25048;49.590;11.026;2024-03-17T10:34:30;15.20;99.90
29281;DHT22;25048;49.590;11.026;2024-03-17T10:37:17;14.90;99.90
29281;DHT22;25048;49.590;11.026;2024-03-17T10:39:53;14.70;99.90
29281;DHT22;25048;49.590;11.026;2024-03-17T10:42:26;14.80;99.90
29281;DHT22;25048;49.590;11.026;2024-03-17T10:45:04;15.10;99.90
29281;DHT22;25048;49.590;11.026;2024-03-17T10:47:31;15.40;99.90
29281;DHT22;25048;49.590;11.026;2024-03-17T10:50:00;15.70;99.90
29281;DHT22;25048;49.590;11.026;2024-03-17T10:52:33;15.90;99.90
29281;DHT22;25048;49.590;11.026;2024-03-17T10:55:05;15.90;99.90
29281;DHT22;25048;49.590;11.026;2024-03-17T11:00:06;16.30;99.90
29281;DHT22;25048;49.590;11.026;2024-03-17T11:02:40;16.50;99.90
29281;DHT22;25048;49.590;11.026;2024-03-17T11:05:25;16.80;99.90
29281;DHT22;25048;49.590;11.026;2024-03-17T11:07:56;16.80;99.20
29281;DHT22;25048;49.590;11.026;2024-03-17T11:10:28;16.70;99.80
29281;DHT22;25048;49.590;11.026;2024-03-17T11:12:56;16.80;99.90
29281;DHT22;25048;49.590;11.026;2024-03-17T11:20:40;16.70;99.60
29281;DHT22;25048;49.590;11.026;2024-03-17T11:23:09;17.00;99.20
29281;DHT22;25048;49.590;11.026;2024-03-17T11:25:40;17.00;99.60
29281;DHT22;25048;49.590;11.026;2024-03-17T11:28:09;17.00;98.90
29281;DHT22;25048;49.590;11.026;2024-03-17T11:30:50;16.80;99.90
29281;DHT22;25048;49.590;11.026;2024-03-17T11:41:39;15.80;99.90
29281;DHT22;25048;49.590;11.026;2024-03-17T11:49:40;16.50;99.40
29281;DHT22;25048;49.590;11.026;2024-03-17T11:54:36;16.40;99.90
29281;DHT22;25048;49.590;11.026;2024-03-17T11:57:05;16.40;99.90
29281;DHT22;25048;49.590;11.026;2024-03-17T11:59:34;16.40;97.90
29281;DHT22;25048;49.590;11.026;2024-03-17T12:02:01;16.40;98.40
29281;DHT22;25048;49.590;11.026;2024-03-17T12:04:29;16.70;99.10
29281;DHT22;25048;49.590;11.026;2024-03-17T12:06:58;16.80;98.80
29281;DHT22;25048;49.590;11.026;2024-03-17T12:09:30;16.80;99.90
29281;DHT22;25048;49.590;11.026;2024-03-17T12:12:12;17.00;98.70
29281;DHT22;25048;49.590;11.026;2024-03-17T12:14:39;17.00;98.40
29281;DHT22;25048;49.590;11.026;2024-03-17T12:17:08;17.40;99.30
29281;DHT22;25048;49.590;11.026;2024-03-17T12:19:37;17.10;98.40
29281;DHT22;25048;49.590;11.026;2024-03-17T12:22:06;17.00;99.20
29281;DHT22;25048;49.590;11.026;2024-03-17T12:24:35;17.20;98.10
29281;DHT22;25048;49.590;11.026;2024-03-17T12:27:07;17.20;97.90
29281;DHT22;25048;49.590;11.026;2024-03-17T12:29:39;17.20;98.60
29281;DHT22;25048;49.590;11.026;2024-03-17T12:32:20;17.10;98.10
29281;DHT22;25048;49.590;11.026;2024-03-17T12:34:44;17.00;98.60
29281;DHT22;25048;49.590;11.026;2024-03-17T12:37:25;17.10;98.60
29281;DHT22;25048;49.590;11.026;2024-03-17T12:39:49;17.00;98.00
29281;DHT22;25048;49.590;11.026;2024-03-17T12:42:24;16.90;99.40
29281;DHT22;25048;49.590;11.026;2024-03-17T12:44:50;17.00;97.90
29281;DHT22;25048;49.590;11.026;2024-03-17T12:47:20;17.20;98.40
29281;DHT22;25048;49.590;11.026;2024-03-17T12:49:49;17.00;98.10
29281;DHT22;25048;49.590;11.026;2024-03-17T12:52:24;16.90;98.80
29281;DHT22;25048;49.590;11.026;2024-03-17T12:55:04;16.80;99.30
29281;DHT22;25048;49.590;11.026;2024-03-17T12:57:51;16.60;98.60
29281;DHT22;25048;49.590;11.026;2024-03-17T13:00:37;16.30;99.70
29281;DHT22;25048;49.590;11.026;2024-03-17T13:03:06;16.50;99.90
29281;DHT22;25048;49.590;11.026;2024-03-17T13:05:38;16.60;99.90
29281;DHT22;25048;49.590;11.026;2024-03-17T13:08:05;16.70;98.80
29281;DHT22;25048;49.590;11.026;2024-03-17T13:10:33;16.50;98.70
29281;DHT22;25048;49.590;11.026;2024-03-17T13:13:03;16.80;99.00
29281;DHT22;25048;49.590;11.026;2024-03-17T13:15:31;16.90;99.30
29281;DHT22;25048;49.590;11.026;2024-03-17T13:17:59;17.10;97.90
29281;DHT22;25048;49.590;11.026;2024-03-17T13:20:27;17.00;97.90
29281;DHT22;25048;49.590;11.026;2024-03-17T13:22:54;16.60;98.00
29281;DHT22;25048;49.590;11.026;2024-03-17T13:25:25;16.40;97.90
29281;DHT22;25048;49.590;11.026;2024-03-17T13:27:55;16.20;97.80
29281;DHT22;25048;49.590;11.026;2024-03-17T13:30:23;16.10;99.20
29281;DHT22;25048;49.590;11.026;2024-03-17T13:32:53;16.00;99.90
29281;DHT22;25048;49.590;11.026;2024-03-17T13:35:28;16.10;98.90
29281;DHT22;25048;49.590;11.026;2024-03-17T13:37:57;16.10;99.40
29281;DHT22;25048;49.590;11.026;2024-03-17T13:40:29;15.90;99.60
29281;DHT22;25048;49.590;11.026;2024-03-17T13:42:57;16.00;99.80
29281;DHT22;25048;49.590;11.026;2024-03-17T13:45:27;16.00;99.90
29281;DHT22;25048;49.590;11.026;2024-03-17T13:48:01;16.10;99.20
29281;DHT22;25048;49.590;11.026;2024-03-17T13:50:30;16.30;99.90
29281;DHT22;25048;49.590;11.026;2024-03-17T13:52:58;16.10;99.90
29281;DHT22;25048;49.590;11.026;2024-03-17T13:55:26;16.20;99.30
29281;DHT22;25048;49.590;11.026;2024-03-17T13:57:55;16.20;99.60
29281;DHT22;25048;49.590;11.026;2024-03-17T14:00:27;16.40;99.40
29281;DHT22;25048;49.590;11.026;2024-03-17T14:02:54;16.60;99.90
29281;DHT22;25048;49.590;11.026;2024-03-17T14:05:24;16.50;98.20
29281;DHT22;25048;49.590;11.026;2024-03-17T14:07:53;16.60;98.80
29281;DHT22;25048;49.590;11.026;2024-03-17T14:10:23;16.80;98.20
29281;DHT22;25048;49.590;11.026;2024-03-17T14:12:51;16.80;98.00
29281;DHT22;25048;49.590;11.026;2024-03-17T14:15:20;16.60;98.10
29281;DHT22;25048;49.590;11.026;2024-03-17T14:17:48;16.40;99.10
29281;DHT22;25048;49.590;11.026;2024-03-17T14:20:17;16.30;98.40
29281;DHT22;25048;49.590;11.026;2024-03-17T14:22:46;15.80;98.90
29281;DHT22;25048;49.590;11.026;2024-03-17T14:25:20;15.70;99.70
29281;DHT22;25048;49.590;11.026;2024-03-17T14:27:48;15.40;99.50
29281;DHT22;25048;49.590;11.026;2024-03-17T14:30:18;15.40;99.90
29281;DHT22;25048;49.590;11.026;2024-03-17T14:32:46;15.40;99.90
29281;DHT22;25048;49.590;11.026;2024-03-17T14:35:16;15.50;99.90
29281;DHT22;25048;49.590;11.026;2024-03-17T14:37:44;15.50;99.90
29281;DHT22;25048;49.590;11.026;2024-03-17T14:40:17;15.60;99.90
29281;DHT22;25048;49.590;11.026;2024-03-17T14:42:47;15.50;99.90
29281;DHT22;25048;49.590;11.026;2024-03-17T14:45:15;15.50;99.90
29281;DHT22;25048;49.590;11.026;2024-03-17T14:47:42;15.40;99.70
29281;DHT22;25048;49.590;11.026;2024-03-17T14:50:12;15.40;99.90
29281;DHT22;25048;49.590;11.026;2024-03-17T14:52:40;15.30;99.70
29281;DHT22;25048;49.590;11.026;2024-03-17T14:55:10;15.30;99.90
29281;DHT22;25048;49.590;11.026;2024-03-17T14:57:39;15.30;99.90
29281;DHT22;25048;49.590;11.026;2024-03-17T15:00:09;15.00;99.90
29281;DHT22;25048;49.590;11.026;2024-03-17T15:02:44;15.00;99.90
29281;DHT22;25048;49.590;11.026;2024-03-17T15:05:14;14.90;99.90
29281;DHT22;25048;49.590;11.026;2024-03-17T15:07:42;14.80;99.90
29281;DHT22;25048;49.590;11.026;2024-03-17T15:10:10;14.70;99.90
29281;DHT22;25048;49.590;11.026;2024-03-17T15:12:39;14.60;99.90
29281;DHT22;25048;49.590;11.026;2024-03-17T15:15:07;14.50;99.90
29281;DHT22;25048;49.590;11.026;2024-03-17T15:17:37;14.50;99.90
29281;DHT22;25048;49.590;11.026;2024-03-17T15:20:05;14.50;99.90
29281;DHT22;25048;49.590;11.026;2024-03-17T15:22:37;14.30;99.90
29281;DHT22;25048;49.590;11.026;2024-03-17T15:25:05;14.30;99.90
29281;DHT22;25048;49.590;11.026;2024-03-17T15:27:32;14.10;99.90
29281;DHT22;25048;49.590;11.026;2024-03-17T15:30:00;14.20;99.90
29281;DHT22;25048;49.590;11.026;2024-03-17T15:32:27;14.10;99.90
29281;DHT22;25048;49.590;11.026;2024-03-17T15:34:55;14.10;99.90
29281;DHT22;25048;49.590;11.026;2024-03-17T15:37:24;14.10;99.90
29281;DHT22;25048;49.590;11.026;2024-03-17T15:39:52;14.10;99.90
29281;DHT22;25048;49.590;11.026;2024-03-17T15:42:21;14.00;99.90
29281;DHT22;25048;49.590;11.026;2024-03-17T15:44:49;13.90;99.90
29281;DHT22;25048;49.590;11.026;2024-03-17T15:47:17;13.80;99.90
29281;DHT22;25048;49.590;11.026;2024-03-17T15:49:45;13.80;99.90
29281;DHT22;25048;49.590;11.026;2024-03-17T15:52:13;13.70;99.90
29281;DHT22;25048;49.590;11.026;2024-03-17T15:54:40;13.70;99.90
29281;DHT22;25048;49.590;11.026;2024-03-17T15:57:08;13.60;99.90
29281;DHT22;25048;49.590;11.026;2024-03-17T15:59:36;13.60;99.90
29281;DHT22;25048;49.590;11.026;2024-03-17T16:02:04;13.60;99.90
29281;DHT22;25048;49.590;11.026;2024-03-17T16:04:32;13.50;99.90